• Join FlightAware (Why Join?)
  • Login
  • US Flag 
03:50PM EDT


 

Airport Tracker/Info


-or-


 

Live Flight TrackerFlight Track Log ✈ UCA4838 ✈ 23-Jun-2013 ✈ KEWR - KBWI

Flight Track Log - Related Links

Times and Time Zones

All times are in EDT time to prevent confusion due to time zone crossing. See the UCA4838 flight status page for this flight to view local times or setup timezone preferences in your user account.

Time Position Orientation Groundspeed Altitude Reporting Facility
EDT Latitude Longitude Course Direction KTS MPH feet Rate Location/Type
05:00PM 40.6500 -74.1833 232° Southwest 159 183 1,600  Level New York TRACON
05:01PM 40.6000 -74.2000 194° South 174 200 2,600 1,080 Climbing New York TRACON
05:02PM 40.5667 -74.2500 229° Southwest 183 211 3,800 1,140 Climbing New York TRACON
05:03PM 40.5167 -74.2667 194° South 204 235 4,900 1,080 Climbing New York TRACON
05:04PM 40.4667 -74.2333 153° Southeast 215 247 6,000 600 Climbing New York TRACON
05:04PM 40.4000 -74.2000 159° South 239 275 6,100 -120 Climbing New York TRACON
05:05PM 40.4126 -74.6452 232° Southwest  Level Estimated
05:06PM 40.3311 -74.1827 169° South  Level FlightAware Approximate
05:13PM 39.9127 -74.3295 215° Southwest  Level FlightAware Approximate
05:14PM 39.8579 -74.3793 215° Southwest  Level FlightAware Approximate
05:15PM 39.8030 -74.4288 214° Southwest  Level FlightAware Approximate
05:16PM 39.7478 -74.4779 214° Southwest  Level FlightAware Approximate
05:17PM 39.6927 -74.5269 214° Southwest  Level FlightAware Approximate
05:18PM 39.6387 -74.5780 218° Southwest  Level FlightAware Approximate
05:19PM 39.5858 -74.6309 218° Southwest  Level FlightAware Approximate
05:20PM 39.5328 -74.6838 218° Southwest  Level FlightAware Approximate
05:21PM 39.4795 -74.7359 216° Southwest  Level FlightAware Approximate
05:22PM 39.4253 -74.7866 216° Southwest  Level FlightAware Approximate
05:23PM 39.3711 -74.8372 216° Southwest  Level FlightAware Approximate
05:24PM 39.3169 -74.8878 216° Southwest  Level FlightAware Approximate
05:25PM 39.2627 -74.9382 216° Southwest  Level FlightAware Approximate
05:26PM 39.2027 -74.9755 203° Southwest  Level FlightAware Approximate
05:27PM 39.1411 -75.0088 203° Southwest  Level FlightAware Approximate
05:28PM 39.0794 -75.0419 203° Southwest  Level FlightAware Approximate
05:29PM 39.0200 -75.0800 218° Southwest  Level FlightAware Approximate
05:30PM 38.9589 -75.1145 203° Southwest  Level FlightAware Approximate
05:31PM 38.8972 -75.1477 203° Southwest  Level FlightAware Approximate
05:32PM 38.8356 -75.1809 203° Southwest  Level FlightAware Approximate
05:33PM 38.7980 -75.2362 266° West  Level FlightAware Approximate
05:34PM 38.7933 -75.3217 266° West  Level FlightAware Approximate
05:34PM 39.1833 -75.7000 265° West 240 276 4,000  Level Potomac TRACON
05:35PM 38.7886 -75.4072 266° West  Level FlightAware Approximate
05:35PM 39.1833 -75.8000 270° West 240 276 3,900  Level Potomac TRACON
05:36PM 38.7837 -75.4928 266° West  Level FlightAware Approximate
05:36PM 39.1833 -75.8667 270° West 242 278 4,000  Level Potomac TRACON
05:37PM 38.7774 -75.5781 264° West  Level FlightAware Approximate
05:37PM 39.1833 -75.9667 270° West 242 278 4,000  Level Potomac TRACON
05:38PM 38.7708 -75.6634 264° West  Level FlightAware Approximate
05:38PM 39.1167 -76.0000 201° Southwest 257 296 4,000  Level Potomac TRACON
05:39PM 38.7644 -75.7487 265° West  Level FlightAware Approximate
05:39PM 39.0500 -76.0000 180° South 254 292 4,000  Level Potomac TRACON
05:40PM 39.0167 -76.0833 243° Southwest 245 282 4,000  Level Potomac TRACON
05:41PM 39.0167 -76.1667 270° West 245 282 4,000 -180 Level Potomac TRACON
05:42PM 39.0167 -76.2500 270° West 246 283 3,700 -540 Descending Potomac TRACON
05:43PM 39.0000 -76.3333 256° West 234 269 3,000 -360 Descending Potomac TRACON
05:44PM 39.0167 -76.4167 284° West 225 259 3,000  Level Potomac TRACON
05:45PM 39.0333 -76.4833 288° West 221 254 3,000 -540 Level Potomac TRACON
05:46PM 39.0500 -76.5500 288° West 180 207 2,000 -600 Descending Potomac TRACON
05:47PM 39.0833 -76.6000 311° West 190 219 1,900 -600 Descending Potomac TRACON
05:48PM 39.1333 -76.6333 333° Northwest 177 204 900 -1,020 Descending Potomac TRACON
05:50PM 39.1667 -76.6667 314° West  Level FlightAware Approximate
05:57PM 39.1754 -76.6683 314° West  Level Estimated